Terminal Aerodrome Forecast
Issued by NWS Louisville, KY

Home | Current Version | Previous Version | Text Only | Print | Product List | Glossary On
Versions: 1 2 3 4 5 6 7 8 9 10 11 12 13 14 15 16 17 18
000
FTUS43 KLMK 251731
TAFLEX
TAF
KLEX 251731Z 2518/2618 18012G25KT P6SM FEW040 BKN150
     FM252300 17012G20KT P6SM BKN050
     FM260600 16008KT 4SM -SHRA VCTS BKN040CB
     FM261100 17010KT 4SM -SHRA BR BKN021
     FM261600 19013KT P6SM VCSH BKN025=

USA.gov is the U.S. government's official web portal to all federal, state and local government web resources and services.